createdAt,value
2017-11-06T00:02:14.658Z,90.90
2017-11-06T00:08:02.161Z,90.70
2017-11-06T00:10:41.987Z,90.70
2017-11-06T00:13:09.825Z,90.80
2017-11-06T00:15:38.193Z,90.90
2017-11-06T00:18:06.440Z,90.90
2017-11-06T00:20:33.944Z,90.90
2017-11-06T00:23:01.609Z,90.90
2017-11-06T00:25:29.065Z,90.90
2017-11-06T00:27:57.291Z,90.90
2017-11-06T00:30:24.886Z,90.90
2017-11-06T00:32:53.138Z,90.80
2017-11-06T00:35:20.613Z,90.80
2017-11-06T00:37:48.864Z,90.90
2017-11-06T00:40:16.327Z,90.90
2017-11-06T00:42:43.795Z,90.80
2017-11-06T00:45:11.368Z,90.70
2017-11-06T00:47:39.617Z,90.70
2017-11-06T00:50:07.206Z,90.70
2017-11-06T00:52:35.451Z,90.90
2017-11-06T00:55:03.045Z,90.90
2017-11-06T00:57:31.327Z,91.00
2017-11-06T00:59:58.818Z,91.00
2017-11-06T01:02:26.335Z,91.00
2017-11-06T01:04:53.919Z,91.10
2017-11-06T01:07:21.599Z,91.00
2017-11-06T01:09:49.228Z,91.10
2017-11-06T01:12:16.731Z,91.10
2017-11-06T01:14:44.261Z,90.90
2017-11-06T01:17:11.742Z,91.00
2017-11-06T01:19:39.228Z,91.00
2017-11-06T01:22:07.555Z,91.00
2017-11-06T01:24:35.037Z,91.00
2017-11-06T01:27:02.567Z,91.00
2017-11-06T01:29:30.186Z,91.10
2017-11-06T01:31:58.555Z,91.30
2017-11-06T01:34:26.038Z,91.20
2017-11-06T01:36:53.585Z,91.20
2017-11-06T01:39:21.857Z,91.10
2017-11-06T01:41:50.120Z,91.10
2017-11-06T01:44:17.602Z,91.10
2017-11-06T01:46:45.090Z,91.20
2017-11-06T01:49:12.554Z,91.20
2017-11-06T01:51:40.083Z,91.30
2017-11-06T01:54:07.598Z,91.20
2017-11-06T01:56:37.910Z,91.10
2017-11-06T01:59:05.418Z,91.10
2017-11-06T02:01:33.517Z,91.10
2017-11-06T02:04:01.098Z,91.30
2017-11-06T02:06:28.665Z,91.40
2017-11-06T02:08:56.177Z,91.40
2017-11-06T02:11:23.695Z,91.40
2017-11-06T02:13:51.443Z,91.40
2017-11-06T02:16:19.072Z,91.50
2017-11-06T02:18:46.608Z,91.10
2017-11-06T02:21:14.167Z,91.30
2017-11-06T02:23:41.716Z,91.20
2017-11-06T02:26:09.985Z,91.20
2017-11-06T02:28:38.454Z,91.30
2017-11-06T02:31:05.995Z,91.30
2017-11-06T02:33:33.862Z,91.50
2017-11-06T02:36:02.645Z,91.40
2017-11-06T02:38:30.229Z,91.40
2017-11-06T02:40:58.471Z,91.30
2017-11-06T02:43:25.964Z,91.30
2017-11-06T02:45:54.215Z,91.20
2017-11-06T02:48:21.694Z,91.20
2017-11-06T02:50:49.226Z,91.20
2017-11-06T02:53:16.816Z,91.30
2017-11-06T02:55:45.083Z,91.40
2017-11-06T02:58:13.330Z,91.60
2017-11-06T03:00:40.848Z,91.40
2017-11-06T03:03:08.359Z,91.40
2017-11-06T03:05:35.914Z,91.20
2017-11-06T03:08:03.387Z,91.30
2017-11-06T03:10:31.042Z,91.20
2017-11-06T03:12:58.782Z,91.30
2017-11-06T03:15:26.345Z,91.40
2017-11-06T03:17:53.905Z,91.30
2017-11-06T03:20:21.382Z,91.30
2017-11-06T03:22:48.862Z,91.30
2017-11-06T03:25:17.140Z,91.40
2017-11-06T03:27:45.401Z,91.40
2017-11-06T03:30:12.910Z,91.50
2017-11-06T03:32:40.385Z,91.50
2017-11-06T03:35:07.887Z,91.50
2017-11-06T03:37:35.436Z,91.50
2017-11-06T03:40:03.061Z,91.60
2017-11-06T03:42:30.770Z,91.70
2017-11-06T03:44:58.315Z,91.90
2017-11-06T03:47:26.600Z,91.70
2017-11-06T03:49:54.319Z,91.70
2017-11-06T03:52:21.822Z,91.60
2017-11-06T03:54:49.334Z,91.50
2017-11-06T03:57:16.809Z,91.50
2017-11-06T03:59:44.300Z,91.40
2017-11-06T04:02:11.861Z,91.30
2017-11-06T04:04:39.369Z,91.40
2017-11-06T04:07:06.871Z,91.70
2017-11-06T04:09:34.340Z,91.70
2017-11-06T04:12:01.850Z,91.80
2017-11-06T04:14:29.327Z,91.80
2017-11-06T04:16:56.909Z,91.80
2017-11-06T04:19:24.388Z,91.60
2017-11-06T04:21:51.888Z,91.40
2017-11-06T04:24:19.370Z,91.40
2017-11-06T04:26:47.834Z,92.00
2017-11-06T04:29:15.369Z,92.00
2017-11-06T04:31:42.869Z,92.30
2017-11-06T04:34:11.114Z,92.50
2017-11-06T04:36:38.597Z,92.30
2017-11-06T04:39:06.907Z,92.00
2017-11-06T04:41:34.402Z,92.00
2017-11-06T04:44:02.273Z,91.90
2017-11-06T04:46:29.835Z,91.80
2017-11-06T04:48:57.435Z,91.70
2017-11-06T04:51:25.190Z,91.30
2017-11-06T04:53:52.697Z,91.40
2017-11-06T04:56:20.375Z,91.50
2017-11-06T04:58:47.889Z,91.60
2017-11-06T05:01:15.517Z,91.40
2017-11-06T05:03:43.778Z,91.60
2017-11-06T05:06:11.268Z,91.60
2017-11-06T05:08:38.735Z,91.70
2017-11-06T05:11:06.263Z,91.80
2017-11-06T05:13:34.501Z,91.80
2017-11-06T05:16:02.107Z,91.80
2017-11-06T05:18:29.593Z,91.90
2017-11-06T05:20:57.087Z,91.80
2017-11-06T05:23:24.578Z,91.80
2017-11-06T05:25:53.449Z,91.80
2017-11-06T05:28:20.979Z,91.80
2017-11-06T05:30:48.580Z,91.90
2017-11-06T05:33:16.100Z,92.00
2017-11-06T05:35:43.651Z,92.30
2017-11-06T05:38:11.142Z,91.90
2017-11-06T05:40:38.776Z,91.80
2017-11-06T05:43:06.254Z,91.70
2017-11-06T05:45:33.755Z,91.90
2017-11-06T05:48:01.371Z,91.80
2017-11-06T05:50:29.596Z,91.70
2017-11-06T05:52:57.089Z,91.70
2017-11-06T05:55:24.671Z,91.70
2017-11-06T05:57:52.497Z,91.70
2017-11-06T06:00:19.969Z,91.90
2017-11-06T06:02:47.477Z,91.90
2017-11-06T06:05:14.997Z,91.80
2017-11-06T06:07:42.472Z,91.80
2017-11-06T06:10:10.710Z,91.90
2017-11-06T06:12:38.195Z,91.90
2017-11-06T06:15:05.679Z,92.00
2017-11-06T06:17:33.190Z,92.00
2017-11-06T06:20:00.673Z,91.90
2017-11-06T06:22:28.952Z,92.00
2017-11-06T06:24:57.296Z,92.00
2017-11-06T06:27:24.781Z,92.00
2017-11-06T06:29:53.032Z,92.40
2017-11-06T06:32:20.522Z,92.10
2017-11-06T06:34:49.276Z,92.10
2017-11-06T06:37:16.762Z,92.10
2017-11-06T06:39:45.194Z,92.00
2017-11-06T06:42:12.692Z,92.00
2017-11-06T06:44:40.157Z,91.90
2017-11-06T06:47:07.751Z,92.10
2017-11-06T06:49:35.231Z,92.10
2017-11-06T06:52:02.789Z,92.40
2017-11-06T06:54:30.445Z,92.10
2017-11-06T06:56:58.146Z,92.00
2017-11-06T06:59:25.613Z,92.20
2017-11-06T07:01:53.854Z,92.10
2017-11-06T07:04:21.366Z,92.10
2017-11-06T07:06:48.849Z,92.10
2017-11-06T07:09:16.339Z,92.20
2017-11-06T07:11:43.815Z,92.30
2017-11-06T07:14:12.141Z,92.40
2017-11-06T07:16:39.722Z,92.40
2017-11-06T07:19:07.217Z,92.30
2017-11-06T07:21:35.475Z,92.40
2017-11-06T07:24:03.744Z,92.30
2017-11-06T07:26:31.221Z,92.30
2017-11-06T07:28:59.494Z,92.30
2017-11-06T07:31:27.772Z,92.40
2017-11-06T07:33:56.049Z,92.40
2017-11-06T07:36:24.441Z,92.20
2017-11-06T07:38:52.704Z,91.90
2017-11-06T07:41:20.232Z,91.90
2017-11-06T07:43:47.725Z,91.70
2017-11-06T07:46:15.227Z,91.50
2017-11-06T07:48:42.831Z,91.50
2017-11-06T07:51:11.108Z,91.60
2017-11-06T07:53:38.641Z,91.60
2017-11-06T07:56:06.901Z,91.60
2017-11-06T07:58:34.489Z,91.60
2017-11-06T08:01:01.965Z,91.50
2017-11-06T08:03:30.218Z,91.60
2017-11-06T08:05:57.708Z,91.50
2017-11-06T08:08:25.171Z,91.50
2017-11-06T08:10:52.659Z,91.60
2017-11-06T08:13:20.128Z,91.60
2017-11-06T08:15:47.614Z,91.10
2017-11-06T08:18:15.856Z,91.20
2017-11-06T08:20:43.958Z,91.20
2017-11-06T08:23:11.527Z,90.80
2017-11-06T08:25:39.799Z,90.30
2017-11-06T08:28:07.281Z,90.30
2017-11-06T08:30:34.761Z,90.50
2017-11-06T08:33:02.251Z,90.50
2017-11-06T08:35:29.741Z,90.70
2017-11-06T08:37:57.248Z,90.40
2017-11-06T08:40:24.729Z,90.70
2017-11-06T08:42:52.285Z,90.80
2017-11-06T08:45:19.906Z,90.40
2017-11-06T08:47:47.516Z,90.20
2017-11-06T08:50:14.996Z,90.50
2017-11-06T08:52:43.234Z,90.30
2017-11-06T08:55:10.722Z,90.30
2017-11-06T08:57:38.968Z,90.30
2017-11-06T09:00:07.949Z,89.60
2017-11-06T09:02:35.440Z,89.50
2017-11-06T09:05:04.002Z,86.80
2017-11-06T09:07:31.532Z,86.80
2017-11-06T09:09:59.026Z,87.50
2017-11-06T09:12:26.510Z,87.90
2017-11-06T09:14:53.974Z,88.70
2017-11-06T09:17:21.450Z,88.70
2017-11-06T09:19:48.917Z,89.40
2017-11-06T09:22:16.407Z,88.50
2017-11-06T09:24:44.636Z,83.10
2017-11-06T09:27:12.108Z,83.20
2017-11-06T09:29:39.599Z,82.50
2017-11-06T09:32:07.060Z,83.50
2017-11-06T09:34:35.306Z,81.30
2017-11-06T09:37:02.766Z,81.50
2017-11-06T09:39:30.250Z,79.20
2017-11-06T09:41:57.720Z,78.60
2017-11-06T09:44:25.948Z,79.30
2017-11-06T09:46:53.439Z,79.30
2017-11-06T09:49:21.698Z,79.20
2017-11-06T09:51:49.187Z,79.00
2017-11-06T09:54:17.412Z,82.90
2017-11-06T09:56:45.686Z,83.60
2017-11-06T09:59:13.157Z,82.80
2017-11-06T10:01:40.649Z,82.90
2017-11-06T10:04:08.891Z,80.90
2017-11-06T10:06:36.377Z,80.70
2017-11-06T10:09:04.631Z,80.90
2017-11-06T10:11:32.081Z,80.90
2017-11-06T10:13:59.559Z,80.10
2017-11-06T10:16:27.799Z,80.20
2017-11-06T10:18:55.274Z,80.10
2017-11-06T10:21:22.727Z,79.60
2017-11-06T10:23:50.217Z,81.30
2017-11-06T10:26:19.256Z,79.90
2017-11-06T10:28:46.733Z,79.80
2017-11-06T10:31:14.189Z,78.40
2017-11-06T10:33:41.713Z,79.00
2017-11-06T10:36:09.168Z,78.90
2017-11-06T10:38:36.725Z,79.00
2017-11-06T10:41:04.304Z,77.90
2017-11-06T10:43:31.817Z,77.90
2017-11-06T10:46:00.045Z,78.60
2017-11-06T10:48:27.671Z,78.60
2017-11-06T10:50:55.134Z,76.70
2017-11-06T10:53:22.603Z,76.90
2017-11-06T10:55:50.080Z,76.10
2017-11-06T10:58:17.552Z,75.40
2017-11-06T11:00:45.797Z,74.40
2017-11-06T11:03:13.271Z,74.10
2017-11-06T11:05:40.754Z,75.10
2017-11-06T11:08:09.013Z,77.10
2017-11-06T11:10:36.482Z,77.10
2017-11-06T11:13:03.970Z,76.10
2017-11-06T11:15:31.444Z,76.10
2017-11-06T11:17:59.255Z,75.70
2017-11-06T11:20:26.701Z,73.90
2017-11-06T11:22:54.168Z,73.60
2017-11-06T11:25:21.652Z,71.70
2017-11-06T11:27:50.132Z,68.00
2017-11-06T11:30:18.461Z,68.70
2017-11-06T11:32:46.518Z,68.70
2017-11-06T11:35:14.830Z,67.70
2017-11-06T11:37:42.358Z,66.60
2017-11-06T11:40:09.853Z,67.50
2017-11-06T11:42:38.113Z,68.60
2017-11-06T11:45:05.721Z,68.50
2017-11-06T11:47:33.190Z,70.90
2017-11-06T11:50:00.674Z,71.70
2017-11-06T11:52:28.150Z,72.00
2017-11-06T11:54:59.413Z,71.70
2017-11-06T11:57:27.671Z,69.00
2017-11-06T11:59:55.157Z,69.00
2017-11-06T12:02:23.398Z,66.20
2017-11-06T12:04:50.897Z,66.00
2017-11-06T12:07:18.370Z,65.40
2017-11-06T12:09:45.837Z,62.00
2017-11-06T12:12:13.314Z,63.10
2017-11-06T12:14:40.803Z,62.80
2017-11-06T12:17:09.390Z,63.20
2017-11-06T12:19:37.734Z,65.20
2017-11-06T12:22:05.309Z,65.00
2017-11-06T12:24:32.888Z,66.90
2017-11-06T12:27:01.256Z,67.40
2017-11-06T12:29:29.505Z,67.00
2017-11-06T12:31:56.975Z,66.90
2017-11-06T12:34:25.345Z,68.10
2017-11-06T12:36:53.589Z,68.20
2017-11-06T12:39:21.058Z,67.80
2017-11-06T12:41:48.554Z,67.10
2017-11-06T12:44:16.809Z,68.50
2017-11-06T12:46:44.427Z,68.40
2017-11-06T12:49:11.902Z,69.80
2017-11-06T12:51:39.512Z,70.70
2017-11-06T12:54:07.767Z,71.70
2017-11-06T12:56:35.262Z,71.70
2017-11-06T12:59:03.497Z,72.70
2017-11-06T13:01:31.450Z,72.70
2017-11-06T13:03:58.916Z,74.30
2017-11-06T13:06:27.029Z,72.90
2017-11-06T13:08:55.282Z,71.20
2017-11-06T13:11:23.548Z,70.50
2017-11-06T13:13:51.795Z,70.50
2017-11-06T13:16:19.261Z,70.20
2017-11-06T13:18:46.769Z,68.30
2017-11-06T13:21:14.248Z,69.20
2017-11-06T13:23:41.769Z,69.70
2017-11-06T13:26:10.042Z,71.40
2017-11-06T13:28:38.311Z,71.80
2017-11-06T13:31:05.793Z,71.70
2017-11-06T13:33:33.306Z,71.30
2017-11-06T13:36:00.801Z,71.00
2017-11-06T13:38:29.117Z,71.40
2017-11-06T13:40:56.623Z,71.40
2017-11-06T13:43:24.094Z,72.00
2017-11-06T13:45:52.356Z,70.80
2017-11-06T13:48:20.618Z,69.80
2017-11-06T13:50:48.097Z,69.80
2017-11-06T13:53:16.413Z,66.80
2017-11-06T13:55:43.874Z,66.90
2017-11-06T13:58:11.381Z,66.20
2017-11-06T14:00:40.356Z,63.80
2017-11-06T14:03:07.859Z,63.00
2017-11-06T14:05:35.352Z,64.60
2017-11-06T14:08:02.846Z,63.20
2017-11-06T14:10:31.121Z,63.50
2017-11-06T14:12:59.404Z,64.30
2017-11-06T14:15:27.658Z,63.20
2017-11-06T14:17:55.130Z,63.30
2017-11-06T14:20:23.597Z,65.00
2017-11-06T14:22:51.936Z,63.70
2017-11-06T14:25:19.549Z,63.70
2017-11-06T14:27:47.809Z,64.70
2017-11-06T14:30:15.353Z,64.60
2017-11-06T14:32:42.824Z,65.40
2017-11-06T14:35:10.300Z,67.20
2017-11-06T14:37:38.546Z,70.00
2017-11-06T14:40:06.023Z,70.00
2017-11-06T14:42:34.301Z,70.50
2017-11-06T14:45:02.551Z,72.20
2017-11-06T14:47:30.044Z,71.80
2017-11-06T14:49:58.365Z,72.50
2017-11-06T14:52:25.913Z,72.40
2017-11-06T14:54:53.525Z,73.20
2017-11-06T14:57:21.065Z,72.70
2017-11-06T14:59:48.987Z,74.30
2017-11-06T15:02:16.524Z,74.50
2017-11-06T15:04:44.851Z,75.70
2017-11-06T15:07:12.349Z,75.70
2017-11-06T15:09:40.600Z,74.40
2017-11-06T15:12:08.077Z,74.30
2017-11-06T15:14:36.354Z,74.20
2017-11-06T15:17:03.842Z,73.70
2017-11-06T15:19:31.333Z,74.00
2017-11-06T15:21:58.827Z,74.20
2017-11-06T15:24:26.300Z,74.00
2017-11-06T15:26:54.561Z,73.30
2017-11-06T15:29:22.809Z,72.90
2017-11-06T15:31:50.296Z,72.90
2017-11-06T15:34:18.570Z,73.30
2017-11-06T15:36:46.817Z,73.00
2017-11-06T15:39:14.359Z,72.90
2017-11-06T15:41:41.821Z,73.30
2017-11-06T15:44:09.316Z,74.00
2017-11-06T15:46:38.412Z,77.20
2017-11-06T15:49:05.875Z,77.20
2017-11-06T15:51:34.255Z,79.00
2017-11-06T15:54:02.531Z,79.20
2017-11-06T15:56:30.776Z,79.10
2017-11-06T15:58:58.357Z,79.10
2017-11-06T16:01:26.605Z,77.30
2017-11-06T16:03:54.069Z,77.30
2017-11-06T16:06:23.051Z,77.30
2017-11-06T16:08:50.516Z,77.30
2017-11-06T16:11:18.015Z,77.40
2017-11-06T16:13:46.235Z,77.80
2017-11-06T16:16:13.840Z,77.80
2017-11-06T16:18:42.069Z,77.70
2017-11-06T16:21:09.534Z,77.70
2017-11-06T16:23:37.009Z,77.90
2017-11-06T16:26:05.237Z,78.70
2017-11-06T16:28:32.701Z,78.20
2017-11-06T16:31:00.260Z,77.30
2017-11-06T16:33:27.897Z,77.60
2017-11-06T16:35:55.461Z,77.80
2017-11-06T16:38:23.097Z,78.00
2017-11-06T16:40:51.318Z,78.70
2017-11-06T16:43:18.807Z,78.70
2017-11-06T16:45:46.274Z,79.00
2017-11-06T16:48:14.513Z,78.00
2017-11-06T16:50:41.989Z,77.80
2017-11-06T16:53:09.513Z,78.20
2017-11-06T16:55:37.178Z,78.60
2017-11-06T16:58:04.872Z,78.60
2017-11-06T17:00:32.365Z,78.50
2017-11-06T17:02:59.878Z,78.90
2017-11-06T17:05:27.358Z,79.30
2017-11-06T17:07:54.857Z,79.80
2017-11-06T17:10:22.425Z,79.50
2017-11-06T17:12:49.955Z,79.60
2017-11-06T17:15:18.227Z,80.10
2017-11-06T17:17:45.713Z,80.10
2017-11-06T17:20:13.259Z,80.20
2017-11-06T17:22:40.872Z,80.40
2017-11-06T17:25:08.376Z,81.40
2017-11-06T17:27:35.848Z,82.50
2017-11-06T17:30:03.321Z,83.30
2017-11-06T17:32:30.868Z,83.80
2017-11-06T17:34:58.425Z,83.80
2017-11-06T17:37:25.885Z,84.20
2017-11-06T17:39:53.360Z,84.20
2017-11-06T17:42:21.331Z,84.40
2017-11-06T17:44:48.921Z,84.40
2017-11-06T17:47:17.172Z,84.70
2017-11-06T17:49:44.624Z,84.60
2017-11-06T17:52:12.111Z,84.70
2017-11-06T17:54:39.591Z,84.50
2017-11-06T17:57:07.825Z,84.70
2017-11-06T17:59:35.350Z,84.70
2017-11-06T18:02:02.871Z,84.80
2017-11-06T18:04:31.116Z,86.10
2017-11-06T18:06:58.580Z,86.10
2017-11-06T18:09:26.082Z,86.80
2017-11-06T18:11:53.559Z,86.90
2017-11-06T18:14:21.044Z,87.50
2017-11-06T18:16:48.514Z,87.50
2017-11-06T18:19:16.021Z,87.30
2017-11-06T18:21:43.507Z,88.00
2017-11-06T18:24:10.972Z,88.20
2017-11-06T18:26:38.467Z,88.60
2017-11-06T18:29:06.702Z,88.60
2017-11-06T18:31:34.179Z,88.60
2017-11-06T18:34:02.449Z,89.00
2017-11-06T18:36:29.910Z,88.90
2017-11-06T18:38:58.164Z,88.40
2017-11-06T18:41:25.628Z,88.30
2017-11-06T18:43:53.113Z,88.20
2017-11-06T18:46:21.484Z,88.20
2017-11-06T18:48:49.738Z,87.90
2017-11-06T18:51:17.262Z,87.90
2017-11-06T18:53:44.749Z,88.20
2017-11-06T18:56:12.225Z,90.00
2017-11-06T18:58:40.477Z,90.50
2017-11-06T19:01:07.985Z,90.50
2017-11-06T19:03:35.566Z,90.70
2017-11-06T19:06:03.057Z,90.70
2017-11-06T19:08:30.543Z,90.60
2017-11-06T19:10:58.786Z,90.20
2017-11-06T19:13:26.289Z,90.20
2017-11-06T19:15:54.596Z,89.60
2017-11-06T19:18:22.190Z,89.60
2017-11-06T19:20:49.693Z,89.30
2017-11-06T19:23:17.240Z,89.30
2017-11-06T19:25:44.882Z,90.00
2017-11-06T19:28:13.147Z,89.90
2017-11-06T19:30:41.432Z,89.30
2017-11-06T19:33:09.690Z,89.20
2017-11-06T19:35:37.211Z,89.20
2017-11-06T19:38:04.734Z,89.60
2017-11-06T19:40:33.020Z,89.90
2017-11-06T19:43:01.262Z,89.60
2017-11-06T19:45:29.828Z,89.70
2017-11-06T19:47:57.339Z,89.70
2017-11-06T19:50:24.860Z,89.60
2017-11-06T19:52:52.505Z,89.60
2017-11-06T19:55:21.962Z,89.70
2017-11-06T19:57:49.575Z,89.80
2017-11-06T20:00:17.131Z,89.60
2017-11-06T20:02:44.698Z,91.10
2017-11-06T20:05:12.536Z,91.20
2017-11-06T20:07:40.355Z,91.20
2017-11-06T20:10:08.601Z,91.90
2017-11-06T20:12:36.098Z,91.90
2017-11-06T20:15:03.617Z,91.50
2017-11-06T20:17:31.105Z,90.90
2017-11-06T20:19:59.357Z,90.50
2017-11-06T20:22:26.850Z,90.50
2017-11-06T20:24:54.397Z,90.50
2017-11-06T20:27:21.998Z,90.30
2017-11-06T20:29:49.496Z,90.30
2017-11-06T20:32:17.131Z,90.40
2017-11-06T20:34:44.618Z,90.60
2017-11-06T20:37:12.980Z,90.90
2017-11-06T20:39:40.480Z,90.90
2017-11-06T20:42:07.982Z,90.70
2017-11-06T20:44:35.675Z,90.40
2017-11-06T20:47:04.209Z,90.20
2017-11-06T20:49:31.792Z,90.20
2017-11-06T20:51:59.348Z,90.00
2017-11-06T20:54:26.893Z,89.90
2017-11-06T20:56:54.395Z,90.00
2017-11-06T20:59:22.668Z,90.40
2017-11-06T21:01:50.131Z,90.40
2017-11-06T21:04:18.464Z,90.70
2017-11-06T21:06:46.322Z,90.60
2017-11-06T21:09:13.914Z,90.60
2017-11-06T21:11:41.462Z,90.60
2017-11-06T21:14:09.006Z,90.50
2017-11-06T21:16:36.508Z,90.40
2017-11-06T21:19:04.775Z,90.50
2017-11-06T21:21:32.929Z,90.40
2017-11-06T21:24:00.397Z,90.40
2017-11-06T21:26:27.896Z,90.40
2017-11-06T21:28:55.363Z,90.50
2017-11-06T21:31:22.859Z,90.60
2017-11-06T21:33:50.324Z,90.80
2017-11-06T21:36:17.997Z,91.10
2017-11-06T21:38:46.502Z,91.30
2017-11-06T21:41:14.862Z,91.30
2017-11-06T21:43:43.111Z,91.50
2017-11-06T21:46:10.580Z,91.50
2017-11-06T21:48:38.065Z,91.70
2017-11-06T21:51:06.347Z,91.90
2017-11-06T21:53:53.601Z,91.90
2017-11-06T21:56:21.507Z,91.80
2017-11-06T22:01:42.464Z,91.90
2017-11-06T22:04:09.964Z,91.80
2017-11-06T22:06:38.231Z,92.00
2017-11-06T22:09:09.378Z,92.20
2017-11-06T22:11:55.404Z,92.00
2017-11-06T22:14:24.453Z,91.70
2017-11-06T22:16:57.991Z,91.60
2017-11-06T22:19:29.960Z,91.60
2017-11-06T22:21:59.662Z,91.50
2017-11-06T22:24:28.781Z,91.40
2017-11-06T22:27:21.331Z,91.60
2017-11-06T22:29:59.240Z,91.30
2017-11-06T22:32:31.028Z,90.90
2017-11-06T22:35:08.685Z,91.00
2017-11-06T22:37:37.429Z,90.70
2017-11-06T22:40:05.118Z,90.60
2017-11-06T22:42:33.376Z,90.60
2017-11-06T22:45:06.285Z,90.60
2017-11-06T22:47:34.522Z,90.60
2017-11-06T22:50:02.829Z,90.60
2017-11-06T22:52:31.709Z,90.90
2017-11-06T22:54:59.946Z,90.90
2017-11-06T22:57:27.676Z,90.80
2017-11-06T22:59:55.151Z,90.90
2017-11-06T23:02:22.707Z,90.80
2017-11-06T23:04:50.197Z,90.90
2017-11-06T23:07:17.660Z,90.80
2017-11-06T23:09:45.152Z,90.90
2017-11-06T23:12:13.079Z,90.80
2017-11-06T23:14:40.703Z,90.70
2017-11-06T23:17:08.778Z,90.60
2017-11-06T23:19:36.264Z,90.80
2017-11-06T23:22:03.750Z,90.70
2017-11-06T23:24:33.880Z,90.80
2017-11-06T23:27:03.125Z,91.20
2017-11-06T23:29:31.549Z,91.10
2017-11-06T23:32:00.447Z,91.00
2017-11-06T23:34:29.488Z,90.70
2017-11-06T23:36:59.253Z,90.70
2017-11-06T23:39:27.519Z,90.90
2017-11-06T23:41:56.282Z,91.20
2017-11-06T23:44:27.678Z,91.20
2017-11-06T23:46:55.158Z,91.10
2017-11-06T23:49:22.826Z,90.90
2017-11-06T23:51:50.322Z,91.00
2017-11-06T23:54:18.730Z,91.00
2017-11-06T23:56:46.221Z,91.00
2017-11-06T23:59:13.724Z,91.30
